createdAt,value
2023-10-06T00:00:23.824Z,39.69
2023-10-06T00:02:51.441Z,39.28
2023-10-06T00:05:21.606Z,39.80
2023-10-06T00:07:51.254Z,39.94
2023-10-06T00:10:18.941Z,39.27
2023-10-06T00:12:47.586Z,39.16
2023-10-06T00:15:16.336Z,39.86
2023-10-06T00:17:43.944Z,39.36
2023-10-06T00:20:13.135Z,39.42
2023-10-06T00:22:41.263Z,39.50
2023-10-06T00:25:10.885Z,39.04
2023-10-06T00:27:38.442Z,39.36
2023-10-06T00:30:07.579Z,38.89
2023-10-06T00:32:35.200Z,39.00
2023-10-06T00:35:02.991Z,39.15
2023-10-06T00:37:30.635Z,39.25
2023-10-06T00:39:58.725Z,39.37
2023-10-06T00:42:28.869Z,39.61
2023-10-06T00:44:56.397Z,39.62
2023-10-06T00:47:24.092Z,39.45
2023-10-06T00:49:51.988Z,39.55
2023-10-06T00:52:19.604Z,39.53
2023-10-06T00:54:47.288Z,39.62
2023-10-06T00:57:15.816Z,39.11
2023-10-06T00:59:45.180Z,39.69
2023-10-06T01:02:15.501Z,39.16
2023-10-06T01:04:45.537Z,40.22
2023-10-06T01:07:14.458Z,39.03
2023-10-06T01:09:53.174Z,39.42
2023-10-06T01:12:20.785Z,38.80
2023-10-06T01:14:50.321Z,38.68
2023-10-06T01:17:18.438Z,38.84
2023-10-06T01:19:47.335Z,38.89
2023-10-06T01:22:17.343Z,38.39
2023-10-06T01:24:45.441Z,38.66
2023-10-06T01:27:12.956Z,38.56
2023-10-06T01:29:41.120Z,38.37
2023-10-06T01:32:10.016Z,37.97
2023-10-06T01:34:38.480Z,38.11
2023-10-06T01:37:06.983Z,37.96
2023-10-06T01:39:36.427Z,38.19
2023-10-06T01:42:04.331Z,37.87
2023-10-06T01:44:32.062Z,37.82
2023-10-06T01:46:59.833Z,37.84
2023-10-06T01:49:27.384Z,37.45
2023-10-06T01:52:08.305Z,37.58
2023-10-06T01:54:38.917Z,38.02
2023-10-06T01:57:06.701Z,37.71
2023-10-06T01:59:34.583Z,38.09
2023-10-06T02:02:02.315Z,37.81
2023-10-06T02:04:31.016Z,38.12
2023-10-06T02:06:58.637Z,37.83
2023-10-06T02:09:26.342Z,37.85
2023-10-06T02:11:55.359Z,37.90
2023-10-06T02:14:23.488Z,38.00
2023-10-06T02:16:52.256Z,37.87
2023-10-06T02:19:20.435Z,39.07
2023-10-06T02:21:48.529Z,38.42
2023-10-06T02:24:17.333Z,38.48
2023-10-06T02:26:45.933Z,38.48
2023-10-06T02:29:14.960Z,38.75
2023-10-06T02:31:42.839Z,38.62
2023-10-06T02:34:10.607Z,39.57
2023-10-06T02:36:38.277Z,38.73
2023-10-06T02:39:06.817Z,38.36
2023-10-06T02:41:35.057Z,38.89
2023-10-06T02:44:03.520Z,38.27
2023-10-06T02:46:32.624Z,38.81
2023-10-06T02:49:00.231Z,38.55
2023-10-06T02:51:28.397Z,38.55
2023-10-06T02:53:57.063Z,38.52
2023-10-06T02:56:24.619Z,38.62
2023-10-06T02:58:52.391Z,38.49
2023-10-06T03:01:21.048Z,38.36
2023-10-06T03:03:50.147Z,38.70
2023-10-06T03:06:18.662Z,38.70
2023-10-06T03:08:46.637Z,38.27
2023-10-06T03:11:20.051Z,38.06
2023-10-06T03:13:48.290Z,37.67
2023-10-06T03:16:17.147Z,37.45
2023-10-06T03:18:44.818Z,37.37
2023-10-06T03:21:14.541Z,37.56
2023-10-06T03:23:42.992Z,37.61
2023-10-06T03:26:11.917Z,37.57
2023-10-06T03:28:40.188Z,37.35
2023-10-06T03:31:08.344Z,37.55
2023-10-06T03:33:36.540Z,37.03
2023-10-06T03:36:04.839Z,37.77
2023-10-06T03:38:34.397Z,37.96
2023-10-06T03:41:02.171Z,38.37
2023-10-06T03:43:29.762Z,37.59
2023-10-06T03:45:57.545Z,37.32
2023-10-06T03:48:26.912Z,37.59
2023-10-06T03:50:54.578Z,38.15
2023-10-06T03:53:22.080Z,38.15
2023-10-06T03:55:51.948Z,38.19
2023-10-06T03:58:19.879Z,38.46
2023-10-06T04:00:47.509Z,38.64
2023-10-06T04:03:16.752Z,38.65
2023-10-06T04:05:45.215Z,38.19
2023-10-06T04:08:13.863Z,38.28
2023-10-06T04:10:42.256Z,38.19
2023-10-06T04:13:11.801Z,38.84
2023-10-06T04:15:39.606Z,39.02
2023-10-06T04:18:07.994Z,38.65
2023-10-06T04:20:35.571Z,38.82
2023-10-06T04:23:03.330Z,39.45
2023-10-06T04:25:31.124Z,40.05
2023-10-06T04:27:59.216Z,39.51
2023-10-06T09:11:38.574Z,44.63
2023-10-06T09:14:06.966Z,44.43
2023-10-06T09:16:49.656Z,44.71
2023-10-06T09:19:17.895Z,44.90
2023-10-06T09:22:03.955Z,45.21
2023-10-06T09:24:31.723Z,44.86
2023-10-06T09:27:04.719Z,44.65
2023-10-06T09:29:32.567Z,44.62
2023-10-06T09:32:00.548Z,45.05
2023-10-06T09:34:28.482Z,44.52
2023-10-06T09:36:56.101Z,45.22
2023-10-06T09:39:31.124Z,44.29
2023-10-06T09:42:01.725Z,44.40
2023-10-06T09:44:31.423Z,44.37
2023-10-06T09:47:01.405Z,44.06
2023-10-06T09:49:33.421Z,44.17
2023-10-06T09:52:02.015Z,43.62
2023-10-06T09:54:31.871Z,44.23
2023-10-06T09:57:02.100Z,44.33
2023-10-06T09:59:33.372Z,44.79
2023-10-06T10:02:05.406Z,44.85
2023-10-06T10:04:35.648Z,44.92
2023-10-06T10:07:05.097Z,45.25
2023-10-06T10:09:34.422Z,45.83
2023-10-06T10:12:16.487Z,46.46
2023-10-06T10:14:59.133Z,45.85
2023-10-06T10:17:36.142Z,45.82
2023-10-06T10:20:04.973Z,45.95
2023-10-06T10:22:33.512Z,45.33
2023-10-06T10:27:33.750Z,45.12
2023-10-06T10:30:09.288Z,45.31
2023-10-06T10:32:42.425Z,44.83
2023-10-06T10:35:15.526Z,44.87
2023-10-06T10:38:03.349Z,44.28
2023-10-06T10:40:46.477Z,43.27
2023-10-06T10:43:16.242Z,43.13
2023-10-06T10:45:43.904Z,43.62
2023-10-06T10:48:13.890Z,42.70
2023-10-06T10:51:12.319Z,44.21
2023-10-06T10:53:43.509Z,44.04
2023-10-06T10:56:12.156Z,44.11
2023-10-06T10:58:57.864Z,44.20
2023-10-06T11:01:27.100Z,44.08
2023-10-06T11:04:16.936Z,41.71
2023-10-06T11:06:44.548Z,42.87
2023-10-06T11:09:13.068Z,43.89
2023-10-06T11:11:41.101Z,43.81
2023-10-06T11:14:10.428Z,43.88
2023-10-06T11:16:44.703Z,44.17
2023-10-06T11:19:15.221Z,44.60
2023-10-06T11:21:43.843Z,44.63
2023-10-06T11:24:11.607Z,44.72
2023-10-06T11:26:39.670Z,44.27
2023-10-06T11:29:07.351Z,44.45
2023-10-06T11:31:36.606Z,43.84
2023-10-06T11:34:04.566Z,44.31
2023-10-06T11:36:32.053Z,44.75
2023-10-06T11:39:01.286Z,43.83
2023-10-06T11:41:29.425Z,44.23
2023-10-06T11:43:57.261Z,44.40
2023-10-06T11:46:26.290Z,43.86
2023-10-06T11:49:09.144Z,43.83
2023-10-06T11:51:41.423Z,43.37
2023-10-06T11:54:09.264Z,44.30
2023-10-06T11:56:48.660Z,44.38
2023-10-06T11:59:23.193Z,43.90
2023-10-06T12:01:52.282Z,44.06
2023-10-06T12:04:28.308Z,43.18
2023-10-06T12:06:56.477Z,43.79
2023-10-06T12:09:25.258Z,44.11
2023-10-06T12:11:54.002Z,42.67
2023-10-06T12:14:22.136Z,43.11
2023-10-06T12:16:49.736Z,42.86
2023-10-06T12:19:18.467Z,43.47
2023-10-06T12:21:48.077Z,42.96
2023-10-06T12:24:15.684Z,43.21
2023-10-06T12:26:43.375Z,42.23
2023-10-06T12:29:11.089Z,42.84
2023-10-06T12:31:38.842Z,42.88
2023-10-06T12:34:06.412Z,42.28
2023-10-06T12:36:33.985Z,42.61
2023-10-06T12:39:03.054Z,43.01
2023-10-06T12:41:30.682Z,42.88
2023-10-06T12:43:58.633Z,42.21
2023-10-06T12:46:28.029Z,42.47
2023-10-06T12:48:56.324Z,42.80
2023-10-06T12:51:24.413Z,42.47
2023-10-06T12:53:52.562Z,42.32
2023-10-06T12:56:22.184Z,41.87
2023-10-06T12:58:50.282Z,42.20
2023-10-06T13:01:18.555Z,41.61
2023-10-06T13:03:46.831Z,43.29
2023-10-06T13:06:15.084Z,41.58
2023-10-06T13:08:43.205Z,42.43
2023-10-06T13:11:10.866Z,42.08
2023-10-06T13:13:39.883Z,41.74
2023-10-06T13:16:07.583Z,41.10
2023-10-06T13:18:35.896Z,41.26
2023-10-06T13:21:03.592Z,42.30
2023-10-06T13:23:31.104Z,41.64
2023-10-06T13:25:58.851Z,41.36
2023-10-06T13:28:26.502Z,40.49
2023-10-06T13:30:56.232Z,42.02
2023-10-06T13:33:24.621Z,41.83
2023-10-06T13:35:52.625Z,41.53
2023-10-06T13:38:20.764Z,40.66
2023-10-06T13:40:48.670Z,41.93
2023-10-06T13:43:16.251Z,42.35
2023-10-06T13:45:43.934Z,42.26
2023-10-06T13:48:13.317Z,41.57
2023-10-06T13:50:41.043Z,42.34
2023-10-06T13:53:09.290Z,42.61
2023-10-06T13:55:36.912Z,42.55
2023-10-06T13:58:04.975Z,41.31
2023-10-06T14:00:33.447Z,41.43
2023-10-06T14:03:02.008Z,41.73
2023-10-06T14:07:58.911Z,41.87
2023-10-06T14:10:27.138Z,41.65
2023-10-06T14:12:55.193Z,42.26
2023-10-06T14:15:23.330Z,41.13
2023-10-06T14:17:52.020Z,42.07
2023-10-06T14:20:20.500Z,42.02
2023-10-06T14:22:51.758Z,42.46
2023-10-06T14:25:19.452Z,42.76
2023-10-06T14:27:46.994Z,43.15
2023-10-06T14:30:15.144Z,42.82
2023-10-06T14:32:42.757Z,43.02
2023-10-06T14:35:10.499Z,42.18
2023-10-06T14:37:38.327Z,41.75
2023-10-06T14:40:09.013Z,41.85
2023-10-06T14:42:36.615Z,41.81
2023-10-06T14:45:04.648Z,41.61
2023-10-06T14:47:32.765Z,41.71
2023-10-06T14:50:00.961Z,41.95
2023-10-06T14:52:29.165Z,41.40
2023-10-06T14:54:57.273Z,41.49
2023-10-06T14:57:27.024Z,42.48
2023-10-06T14:59:54.690Z,43.37
2023-10-06T15:02:22.226Z,43.36
2023-10-06T15:04:49.905Z,42.50
2023-10-06T15:07:17.620Z,41.80
2023-10-06T15:09:45.207Z,41.80
2023-10-06T15:12:13.488Z,42.52
2023-10-06T15:14:43.730Z,42.11
2023-10-06T15:17:11.009Z,41.48
2023-10-06T15:19:39.248Z,41.96
2023-10-06T15:22:08.011Z,42.35
2023-10-06T15:24:36.183Z,41.50
2023-10-06T15:27:03.730Z,42.16
2023-10-06T15:29:31.424Z,44.42
2023-10-06T15:32:02.201Z,43.94
2023-10-06T15:34:31.850Z,43.82
2023-10-06T15:37:04.152Z,43.36
2023-10-06T15:39:32.732Z,42.12
2023-10-06T15:42:00.370Z,41.20
2023-10-06T15:44:28.498Z,42.72
2023-10-06T15:46:58.440Z,42.25
2023-10-06T15:49:27.306Z,41.64
2023-10-06T15:51:55.929Z,41.43
2023-10-06T15:54:24.086Z,42.54
2023-10-06T15:56:51.562Z,41.97
2023-10-06T15:59:19.667Z,42.06
2023-10-06T16:01:47.394Z,41.74
2023-10-06T16:04:15.586Z,42.20
2023-10-06T16:06:45.629Z,42.40
2023-10-06T16:09:13.791Z,42.13
2023-10-06T16:11:41.860Z,41.70
2023-10-06T16:14:09.705Z,41.63
2023-10-06T16:16:37.337Z,42.18
2023-10-06T16:19:04.975Z,41.31
2023-10-06T16:21:33.916Z,41.54
2023-10-06T16:24:03.791Z,41.66
2023-10-06T16:26:31.655Z,42.24
2023-10-06T16:28:59.780Z,41.45
2023-10-06T16:31:27.522Z,41.05
2023-10-06T16:33:55.265Z,41.67
2023-10-06T16:36:23.460Z,41.17
2023-10-06T16:38:52.180Z,41.93
2023-10-06T16:41:21.350Z,42.04
2023-10-06T16:43:50.221Z,41.75
2023-10-06T16:46:17.836Z,41.43
2023-10-06T16:48:45.353Z,43.22
2023-10-06T16:51:14.056Z,41.61
2023-10-06T16:53:41.705Z,41.52
2023-10-06T16:56:09.346Z,41.09
2023-10-06T16:58:38.679Z,41.68
2023-10-06T17:01:06.486Z,41.90
2023-10-06T17:03:34.712Z,42.02
2023-10-06T17:06:03.148Z,41.16
2023-10-06T17:08:31.348Z,41.96
2023-10-06T17:11:11.692Z,42.78
2023-10-06T17:13:41.279Z,43.12
2023-10-06T17:16:08.929Z,43.05
2023-10-06T17:18:36.760Z,43.30
2023-10-06T17:21:04.464Z,45.05
2023-10-06T17:23:32.401Z,44.12
2023-10-06T17:25:59.997Z,43.92
2023-10-06T17:28:28.117Z,44.24
2023-10-06T17:30:57.203Z,44.93
2023-10-06T17:33:24.848Z,45.41
2023-10-06T17:35:52.401Z,44.67
2023-10-06T17:38:20.004Z,43.85
2023-10-06T17:40:48.172Z,44.43
2023-10-06T17:43:19.943Z,43.11
2023-10-06T17:45:48.957Z,43.28
2023-10-06T17:48:18.136Z,44.23
2023-10-06T17:50:47.161Z,42.77
2023-10-06T17:53:16.024Z,43.35
2023-10-06T17:55:51.836Z,42.83
2023-10-06T17:58:19.980Z,41.72
2023-10-06T18:00:48.194Z,43.31
2023-10-06T18:03:17.644Z,42.21
2023-10-06T18:05:45.581Z,41.78
2023-10-06T18:08:13.274Z,42.17
2023-10-06T18:10:41.689Z,41.69
2023-10-06T18:13:09.367Z,42.71
2023-10-06T18:15:37.034Z,41.93
2023-10-06T18:18:04.904Z,41.53
2023-10-06T18:20:38.057Z,41.64
2023-10-06T18:23:06.328Z,42.55
2023-10-06T18:25:34.615Z,42.67
2023-10-06T18:28:02.562Z,41.58
2023-10-06T18:30:30.804Z,41.59
2023-10-06T18:32:58.958Z,41.70
2023-10-06T18:35:26.670Z,42.36
2023-10-06T18:37:55.739Z,42.15
2023-10-06T18:40:23.348Z,42.59
2023-10-06T18:42:51.602Z,41.97
2023-10-06T18:45:19.202Z,42.03
2023-10-06T18:47:47.304Z,42.28
2023-10-06T18:50:16.214Z,41.71
2023-10-06T18:52:43.835Z,42.36
2023-10-06T18:55:13.956Z,42.02
2023-10-06T18:57:42.703Z,42.20
2023-10-06T19:00:11.500Z,41.61
2023-10-06T19:02:43.473Z,41.64
2023-10-06T19:05:11.310Z,41.92
2023-10-06T19:07:39.015Z,42.47
2023-10-06T19:10:08.542Z,41.86
2023-10-06T19:12:38.657Z,41.19
2023-10-06T19:15:07.992Z,40.94
2023-10-06T19:17:36.529Z,42.03
2023-10-06T19:20:05.146Z,40.84
2023-10-06T19:22:33.816Z,40.93
2023-10-06T19:25:02.030Z,42.29
2023-10-06T19:27:29.516Z,41.81
2023-10-06T19:29:59.287Z,41.75
2023-10-06T19:32:27.398Z,42.12
2023-10-06T19:34:54.996Z,41.39
2023-10-06T19:37:22.905Z,41.37
2023-10-06T19:39:50.494Z,41.14
2023-10-06T19:42:18.005Z,41.71
2023-10-06T19:44:45.706Z,41.32
2023-10-06T19:47:14.796Z,42.13
2023-10-06T19:49:42.444Z,41.54
2023-10-06T19:52:10.589Z,41.85
2023-10-06T19:54:38.190Z,41.91
2023-10-06T19:57:05.748Z,42.21
2023-10-06T19:59:34.376Z,41.59
2023-10-06T20:02:02.777Z,41.42
2023-10-06T20:04:32.451Z,41.11
2023-10-06T20:07:01.360Z,41.34
2023-10-06T20:09:30.124Z,41.53
2023-10-06T20:11:57.648Z,42.36
2023-10-06T20:14:25.149Z,42.01
2023-10-06T20:16:52.914Z,41.25
2023-10-06T20:19:20.647Z,41.48
2023-10-06T20:21:50.520Z,41.21
2023-10-06T20:24:18.369Z,42.52
2023-10-06T20:26:45.879Z,41.25
2023-10-06T20:29:13.703Z,42.73
2023-10-06T20:31:41.649Z,42.61
2023-10-06T20:34:09.584Z,42.82
2023-10-06T20:36:37.866Z,43.36
2023-10-06T20:39:08.318Z,42.29
2023-10-06T20:41:37.518Z,42.29
2023-10-06T20:44:06.404Z,43.03
2023-10-06T20:46:35.755Z,42.53
2023-10-06T20:49:03.925Z,42.91
2023-10-06T20:51:31.423Z,42.54
2023-10-06T20:53:59.473Z,44.10
2023-10-06T20:56:28.669Z,43.27
2023-10-06T20:58:57.553Z,44.82
2023-10-06T21:01:25.448Z,43.71
2023-10-06T21:03:53.695Z,43.47
2023-10-06T21:06:21.342Z,43.75
2023-10-06T21:08:49.035Z,44.33
2023-10-06T21:11:16.559Z,45.89
2023-10-06T21:16:14.942Z,42.83
2023-10-06T21:18:42.498Z,43.59
2023-10-06T21:21:10.548Z,43.85
2023-10-06T21:23:39.116Z,43.57
2023-10-06T21:26:06.608Z,44.97
2023-10-06T21:28:34.250Z,44.53
2023-10-06T21:31:06.633Z,44.53
2023-10-06T21:33:34.288Z,44.19
2023-10-06T21:36:01.937Z,42.79
2023-10-06T21:38:30.057Z,43.06
2023-10-06T21:41:00.797Z,44.33
2023-10-06T21:43:28.664Z,43.46
2023-10-06T21:45:56.851Z,43.61
2023-10-06T21:48:26.546Z,43.74
2023-10-06T21:50:54.864Z,43.42
2023-10-06T21:53:23.504Z,44.23
2023-10-06T21:55:51.682Z,45.18
2023-10-06T21:58:19.584Z,43.56
2023-10-06T22:00:47.205Z,43.36
2023-10-06T22:03:14.895Z,43.36
2023-10-06T22:05:44.745Z,43.16
2023-10-06T22:08:12.948Z,43.12
2023-10-06T22:10:41.655Z,42.95
2023-10-06T22:13:09.864Z,42.91
2023-10-06T22:15:37.826Z,42.89
2023-10-06T22:18:06.562Z,43.30
2023-10-06T22:20:35.305Z,43.36
2023-10-06T22:23:05.118Z,42.54
2023-10-06T22:25:34.766Z,42.55
2023-10-06T22:28:02.083Z,43.40
2023-10-06T22:30:29.752Z,42.25
2023-10-06T22:32:57.309Z,42.35
2023-10-06T22:35:26.168Z,42.07
2023-10-06T22:37:54.276Z,41.36
2023-10-06T22:40:24.004Z,42.39
2023-10-06T22:42:52.081Z,42.20
2023-10-06T22:45:20.732Z,41.81
2023-10-06T22:47:49.693Z,41.94
2023-10-06T22:50:20.322Z,42.27
2023-10-06T22:52:49.774Z,42.40
2023-10-06T22:55:18.059Z,42.13
2023-10-06T22:57:49.829Z,42.62
2023-10-06T23:00:17.500Z,43.01
2023-10-06T23:02:45.256Z,42.90
2023-10-06T23:05:14.070Z,42.08
2023-10-06T23:07:41.993Z,42.99
2023-10-06T23:10:10.547Z,42.16
2023-10-06T23:12:38.286Z,42.18
2023-10-06T23:15:08.466Z,41.90
2023-10-06T23:17:36.024Z,42.23
2023-10-06T23:20:03.996Z,42.45
2023-10-06T23:22:31.918Z,43.23
2023-10-06T23:24:59.518Z,42.47
2023-10-06T23:27:27.116Z,42.72
2023-10-06T23:29:54.782Z,44.45
2023-10-06T23:32:23.857Z,43.05
2023-10-06T23:34:52.332Z,44.22
2023-10-06T23:37:19.889Z,41.19
2023-10-06T23:39:48.261Z,42.39
2023-10-06T23:42:16.780Z,42.84
2023-10-06T23:44:44.933Z,42.10
2023-10-06T23:47:12.836Z,42.00
2023-10-06T23:49:42.890Z,43.45
2023-10-06T23:52:10.705Z,43.33
2023-10-06T23:54:38.225Z,42.46
2023-10-06T23:57:06.946Z,42.57
2023-10-06T23:59:34.484Z,42.78
